Shana Des Slops — FFZR — position and weather

sailwx.info

Track history (hours):
 
Tides and Currents Weather Stations Pressure Air Temp Water Temp Dewpoint Dewpoint Depression Visibility Wind Speed Wind Dir Waves Ship Positions

Shana Des Slops

Last reported at 2015-Feb-28 01:32 UTC. Time now 2015-Feb-28 02:03 UTC.
Position N 43°24' E 004°60'.

Length 47 m; draft 3.2 m.

Type: Tanker. MMSI: 228003800.

Date/timePositionNaut miles runAvg speedWind from/ knotsBaromVisibWave heightAir tempDewpointWater temp
2015-Feb-28 01:32N 43°24' E 004°60'0 0.0
2015-Feb-28 00:32N 43°24' E 004°60'0 0.0
2015-Feb-27 23:33N 43°24' E 004°60'0 0.0
2015-Feb-27 22:33N 43°24' E 004°60'0 0.0
2015-Feb-27 21:33N 43°24' E 004°60'0 0.0
2015-Feb-27 20:33N 43°24' E 004°60'0 0.0
2015-Feb-27 19:33N 43°24' E 004°60'0 0.0
2015-Feb-27 18:33N 43°24' E 004°60'0 0.0
2015-Feb-27 17:33N 43°24' E 004°60'0 0.0
2015-Feb-27 16:33N 43°24' E 004°60'0 0.0
2015-Feb-27 15:33N 43°24' E 004°60'0 0.0
2015-Feb-27 14:33N 43°24' E 004°60'0 0.0
2015-Feb-27 13:33N 43°24' E 004°60'0 0.0
2015-Feb-27 12:30N 43°24' E 004°60'0 0.0
2015-Feb-27 11:33N 43°24' E 004°60'0 0.0
2015-Feb-27 10:33N 43°24' E 004°60'0 0.0
2015-Feb-27 09:33N 43°24' E 004°60'0 0.0
2015-Feb-27 08:33N 43°24' E 004°60'0 0.0
2015-Feb-27 07:33N 43°24' E 004°60'0 0.0
2015-Feb-27 06:33N 43°24' E 004°60'0 0.0
2015-Feb-27 05:33N 43°24' E 004°60'0 0.0
2015-Feb-27 04:33N 43°24' E 004°60'0 0.0
2015-Feb-27 03:33N 43°24' E 004°60'0 0.0
2015-Feb-27 02:33N 43°24' E 004°60'0 0.0
2015-Feb-27 01:33N 43°24' E 004°60'0 0.0
2015-Feb-27 00:33N 43°24' E 004°60'0 0.0
2015-Feb-26 23:33N 43°24' E 004°60'0 0.0
2015-Feb-26 22:33N 43°24' E 004°60'0 0.0
2015-Feb-26 21:33N 43°24' E 004°60'0 0.0
2015-Feb-26 20:33N 43°24' E 004°60'0 0.0
2015-Feb-26 19:33N 43°24' E 004°60'0 0.0
2015-Feb-26 18:33N 43°24' E 004°60'0 0.0
2015-Feb-26 17:30N 43°24' E 004°60'0 0.0
2015-Feb-26 16:33N 43°24' E 004°60'0 0.0
2015-Feb-26 15:33N 43°24' E 004°60'0 0.0
2015-Feb-26 14:33N 43°24' E 004°60'0 0.0
2015-Feb-26 13:33N 43°24' E 004°60'0 0.0
2015-Feb-26 12:33N 43°24' E 004°60'0 0.0
2015-Feb-26 11:33N 43°24' E 004°60'0 0.0
2015-Feb-26 10:33N 43°24' E 004°60'0 0.0
2015-Feb-26 09:33N 43°24' E 004°60'0 0.0
2015-Feb-26 08:33N 43°24' E 004°60'0 0.0
2015-Feb-26 07:33N 43°24' E 004°60'0 0.0
2015-Feb-26 06:33N 43°24' E 004°60'0 0.0
2015-Feb-26 05:33N 43°24' E 004°60'0 0.0
2015-Feb-26 04:33N 43°24' E 004°60'0 0.0
2015-Feb-26 03:33N 43°24' E 004°60'0 0.0
2015-Feb-26 02:33N 43°24' E 004°60'0 0.0
2015-Feb-26 01:33N 43°24' E 004°60'0 0.0
2015-Feb-26 00:33N 43°24' E 004°60'0 0.0
2015-Feb-25 23:33N 43°24' E 004°60'0 0.0
2015-Feb-25 22:33N 43°24' E 004°60'0 0.0
2015-Feb-25 21:33N 43°24' E 004°60'0 0.0
2015-Feb-25 20:33N 43°24' E 004°60'0 0.0
2015-Feb-25 19:33N 43°24' E 004°60'0 0.0
2015-Feb-25 18:33N 43°24' E 004°60'0 0.0
2015-Feb-25 17:33N 43°24' E 004°60'0 0.0
2015-Feb-25 16:33N 43°24' E 004°60'0 0.0
2015-Feb-25 15:33N 43°24' E 004°60'3 2.9
2015-Feb-25 14:34N 43°24' E 004°56'4 4.3
2015-Feb-25 13:33N 43°25' E 004°50'0 0.0
2015-Feb-25 12:34N 43°25' E 004°50'0 0.0
2015-Feb-25 11:33N 43°25' E 004°50'0 0.0
2015-Feb-25 10:33N 43°25' E 004°50'0 0.0
2015-Feb-25 09:33N 43°25' E 004°50'6 6.4
2015-Feb-25 08:33N 43°23' E 004°59'1 0.7
2015-Feb-25 07:31N 43°24' E 004°60'0 0.0
2015-Feb-25 06:31N 43°24' E 004°60'1 0.5
2015-Feb-25 05:32N 43°24' E 004°60'0 0.0
2015-Feb-25 04:32N 43°24' E 004°60'0 0.0
2015-Feb-25 03:32N 43°24' E 004°60'0 0.0
2015-Feb-25 02:32N 43°24' E 004°60'0 0.0
2015-Feb-25 01:33N 43°24' E 004°60'0 0.0
2015-Feb-25 00:33N 43°24' E 004°60'0 0.0
2015-Feb-24 23:33N 43°24' E 004°60'0 0.0
2015-Feb-24 22:33N 43°24' E 004°60'0 0.0
2015-Feb-24 21:33N 43°24' E 004°60'0 0.0
2015-Feb-24 20:33N 43°24' E 004°60'0 0.0
2015-Feb-24 19:33N 43°24' E 004°60'0 0.0
2015-Feb-24 18:33N 43°24' E 004°60'0 0.0
2015-Feb-24 17:33N 43°24' E 004°60'0 0.0
2015-Feb-24 16:33N 43°24' E 004°60'0 0.0
2015-Feb-24 15:33N 43°24' E 004°60'0 0.0
2015-Feb-24 14:33N 43°24' E 004°60'0 0.0
2015-Feb-24 13:33N 43°24' E 004°60'0 0.0
2015-Feb-24 12:33N 43°24' E 004°60'0 0.0
2015-Feb-24 11:33N 43°24' E 004°60'0 0.0
2015-Feb-24 10:33N 43°24' E 004°60'0 0.0
2015-Feb-24 09:33N 43°24' E 004°60'0 0.0
2015-Feb-24 08:33N 43°24' E 004°60'0 0.0
2015-Feb-24 07:33N 43°24' E 004°60'0 0.0
2015-Feb-24 06:33N 43°24' E 004°60'0 0.0
2015-Feb-24 05:33N 43°24' E 004°60'0 0.0
2015-Feb-24 04:33N 43°24' E 004°60'0 0.0
2015-Feb-24 03:33N 43°24' E 004°60'0 0.0
2015-Feb-24 02:33N 43°24' E 004°60'0 0.0
2015-Feb-24 01:33N 43°24' E 004°60'0 0.0
2015-Feb-24 00:33N 43°24' E 004°60'0 0.2
2015-Feb-23 23:34N 43°24' E 004°60'4 4.4
2015-Feb-23 22:33N 43°26' E 004°54'0 0.0
2015-Feb-23 21:30N 43°26' E 004°54'0 0.0
2015-Feb-23 20:34N 43°26' E 004°54'0 0.0
2015-Feb-23 19:31N 43°26' E 004°54'0 0.0
2015-Feb-23 18:30N 43°26' E 004°54'0 0.0
2015-Feb-23 17:30N 43°26' E 004°54'0 0.0
2015-Feb-23 16:33N 43°26' E 004°54'4 4.3
2015-Feb-23 15:34N 43°24' E 004°59'0 0.4
2015-Feb-23 14:32N 43°24' E 004°60'0 0.0
2015-Feb-23 13:32N 43°24' E 004°60'0 0.0
2015-Feb-23 12:32N 43°24' E 004°60'0 0.0
2015-Feb-23 11:32N 43°24' E 004°60'0 0.0
2015-Feb-23 10:32N 43°24' E 004°60'0 0.0
2015-Feb-23 09:32N 43°24' E 004°60'0 0.0
2015-Feb-23 08:32N 43°24' E 004°60'0 0.0
2015-Feb-23 07:32N 43°24' E 004°60'0 0.0
2015-Feb-23 06:32N 43°24' E 004°60'0 0.0
2015-Feb-23 05:32N 43°24' E 004°60'0 0.0
2015-Feb-23 04:32N 43°24' E 004°60'0 0.0
2015-Feb-23 03:32N 43°24' E 004°60'0 0.0
2015-Feb-23 02:32N 43°24' E 004°60'0 0.0
2015-Feb-23 01:32N 43°24' E 004°60'0 0.0
2015-Feb-23 00:32N 43°24' E 004°60'0 0.0
2015-Feb-22 23:32N 43°24' E 004°60'0 0.0
2015-Feb-22 22:31N 43°24' E 004°60'0 0.0
2015-Feb-22 21:31N 43°24' E 004°60'0 0.0
2015-Feb-22 20:31N 43°24' E 004°60'0 0.0
2015-Feb-22 19:31N 43°24' E 004°60'0 0.0
2015-Feb-22 18:31N 43°24' E 004°60'0 0.0
2015-Feb-22 17:31N 43°24' E 004°60'0 0.0
2015-Feb-22 16:31N 43°24' E 004°60'0 0.0
2015-Feb-22 15:31N 43°24' E 004°60'0 0.0
2015-Feb-22 14:31N 43°24' E 004°60'0 0.0
2015-Feb-22 13:33N 43°24' E 004°60'0 0.0
2015-Feb-22 12:33N 43°24' E 004°60'0 0.0
2015-Feb-22 11:33N 43°24' E 004°60'0 0.0
2015-Feb-22 10:33N 43°24' E 004°60'0 0.0
2015-Feb-22 09:33N 43°24' E 004°60'0 0.0
2015-Feb-22 08:33N 43°24' E 004°60'0 0.0
2015-Feb-22 07:33N 43°24' E 004°60'0 0.0
2015-Feb-22 06:33N 43°24' E 004°60'0 0.0
2015-Feb-22 05:33N 43°24' E 004°60'0 0.0
2015-Feb-22 04:33N 43°24' E 004°60'0 0.0
2015-Feb-22 03:33N 43°24' E 004°60'0 0.0
2015-Feb-22 02:33N 43°24' E 004°60'0 0.0
2015-Feb-22 01:33N 43°24' E 004°60'0 0.0
2015-Feb-22 00:33N 43°24' E 004°60'0 0.0
2015-Feb-21 23:33N 43°24' E 004°60'0 0.0
2015-Feb-21 22:33N 43°24' E 004°60'0 0.0
2015-Feb-21 21:33N 43°24' E 004°60'0 0.0
2015-Feb-21 20:33N 43°24' E 004°60'0 0.0
2015-Feb-21 19:33N 43°24' E 004°60'0 0.0
2015-Feb-21 18:33N 43°24' E 004°60'0 0.0
2015-Feb-21 17:32N 43°24' E 004°60'0 0.0
2015-Feb-21 16:32N 43°24' E 004°60'0 0.0
2015-Feb-21 15:32N 43°24' E 004°60'0 0.0
2015-Feb-21 14:32N 43°24' E 004°60'0 0.0
2015-Feb-21 13:32N 43°24' E 004°60'0 0.0
2015-Feb-21 12:32N 43°24' E 004°60'0 0.0
2015-Feb-21 11:32N 43°24' E 004°60'0 0.0
2015-Feb-21 10:32N 43°24' E 004°60'0 0.0
2015-Feb-21 09:32N 43°24' E 004°60'0 0.0
2015-Feb-21 08:32N 43°24' E 004°60'0 0.0
2015-Feb-21 07:32N 43°24' E 004°60'0 0.0
2015-Feb-21 06:32N 43°24' E 004°60'0 0.0
2015-Feb-21 05:32N 43°24' E 004°60'0 0.0
2015-Feb-21 04:32N 43°24' E 004°60'0 0.0
2015-Feb-21 03:32N 43°24' E 004°60'0 0.0
2015-Feb-21 02:32N 43°24' E 004°60'0 0.0
2015-Feb-21 01:32N 43°24' E 004°60'0 0.0
2015-Feb-21 00:32N 43°24' E 004°60'0 0.0
2015-Feb-20 23:32N 43°24' E 004°60'0 0.0
2015-Feb-20 22:32N 43°24' E 004°60'0 0.0
2015-Feb-20 21:32N 43°24' E 004°60'0 0.0
2015-Feb-20 20:32N 43°24' E 004°60'0 0.0
2015-Feb-20 19:32N 43°24' E 004°60'0 0.0
2015-Feb-20 18:29N 43°24' E 004°60'0 0.0
2015-Feb-20 17:32N 43°24' E 004°60'0 0.0
2015-Feb-20 16:32N 43°24' E 004°60'3 2.8
2015-Feb-20 15:33N 43°25' E 004°56'0 0.0
2015-Feb-20 14:33N 43°25' E 004°56'0 0.0
2015-Feb-20 13:33N 43°25' E 004°56'0 0.0
2015-Feb-20 12:33N 43°25' E 004°56'0 0.1
2015-Feb-20 11:33N 43°25' E 004°56'3 2.6
2015-Feb-20 10:31N 43°24' E 004°60'0 0.0
2015-Feb-20 09:31N 43°24' E 004°60'0 0.0
2015-Feb-20 08:31N 43°24' E 004°60'0 0.0
2015-Feb-20 07:31N 43°24' E 004°60'0 0.0
2015-Feb-20 06:31N 43°24' E 004°60'0 0.0
2015-Feb-20 05:31N 43°24' E 004°60'0 0.0
2015-Feb-20 04:31N 43°24' E 004°60'0 0.0
2015-Feb-20 03:31N 43°24' E 004°60'0 0.0
2015-Feb-20 02:28N 43°24' E 004°60'0 0.0
2015-Feb-20 01:31N 43°24' E 004°60'0 0.0
2015-Feb-20 00:31N 43°24' E 004°60'0 0.0
2015-Feb-19 23:31N 43°24' E 004°60'0 0.0
2015-Feb-19 22:31N 43°24' E 004°60'0 0.0
2015-Feb-19 21:31N 43°24' E 004°60'0 0.0
2015-Feb-19 20:31N 43°24' E 004°60'0 0.0
2015-Feb-19 19:31N 43°24' E 004°60'0 0.0
2015-Feb-19 18:31N 43°24' E 004°60'3 3.5
2015-Feb-19 17:34N 43°21' E 005°00'0 0.1
2015-Feb-19 16:28N 43°21' E 004°60'0 0.0
2015-Feb-19 15:28N 43°21' E 004°60'0 0.0
2015-Feb-19 14:31N 43°21' E 004°60'0 0.1
2015-Feb-19 13:28N 43°21' E 004°60'0 0.1
2015-Feb-19 12:31N 43°21' E 004°60'0 0.0
2015-Feb-19 11:31N 43°21' E 004°60'0 0.0
2015-Feb-19 10:31N 43°21' E 004°60'1 1.4
2015-Feb-19 09:34N 43°22' E 004°59'2 1.9
2015-Feb-19 08:31N 43°24' E 004°60'0 0.0
2015-Feb-19 07:31N 43°24' E 004°60'0 0.0
2015-Feb-19 06:31N 43°24' E 004°60'0 0.0
2015-Feb-19 05:31N 43°24' E 004°60'0 0.0
2015-Feb-19 04:31N 43°24' E 004°60'0 0.0
2015-Feb-19 03:31N 43°24' E 004°60'0 0.0
2015-Feb-19 02:31N 43°24' E 004°60'0 0.0
2015-Feb-19 01:31N 43°24' E 004°60'0 0.0
2015-Feb-19 00:31N 43°24' E 004°60'0 0.0
2015-Feb-18 23:31N 43°24' E 004°60'0 0.0
2015-Feb-18 22:31N 43°24' E 004°60'0 0.0
2015-Feb-18 21:31N 43°24' E 004°60'0 0.0
2015-Feb-18 20:31N 43°24' E 004°60'0 0.0
2015-Feb-18 19:31N 43°24' E 004°60'0 0.0
2015-Feb-18 18:31N 43°24' E 004°60'0 0.0
2015-Feb-18 17:31N 43°24' E 004°60'0 0.0
2015-Feb-18 16:31N 43°24' E 004°60'0 0.0
2015-Feb-18 15:31N 43°24' E 004°60'0 0.0
2015-Feb-18 14:31N 43°24' E 004°60'0 0.0
2015-Feb-18 13:31N 43°24' E 004°60'0 0.0
2015-Feb-18 12:31N 43°24' E 004°60'0 0.0
2015-Feb-18 11:31N 43°24' E 004°60'0 0.0
2015-Feb-18 10:31N 43°24' E 004°60'0 0.0
2015-Feb-18 09:31N 43°24' E 004°60'0 0.0
2015-Feb-18 08:31N 43°24' E 004°60'0 0.0
2015-Feb-18 07:31N 43°24' E 004°60'0 0.0
2015-Feb-18 06:31N 43°24' E 004°60'0 0.0
2015-Feb-18 05:31N 43°24' E 004°60'0 0.0
2015-Feb-18 04:31N 43°24' E 004°60'0 0.0
2015-Feb-18 03:31N 43°24' E 004°60'0 0.0
2015-Feb-18 02:31N 43°24' E 004°60'  
Track history (hours):
 
Tides and Currents Weather Stations Pressure Air Temp Water Temp Dewpoint Dewpoint Depression Visibility Wind Speed Wind Dir Waves Ship Positions

Shana Des Slops

Last reported at 2015-Feb-28 01:32 UTC. Time now 2015-Feb-28 02:03 UTC.
Position N 43°24' E 004°60'.

Length 47 m; draft 3.2 m.

Type: Tanker. MMSI: 228003800.

Date/timePositionNaut miles runAvg speedWind from/ knotsBaromVisibWave heightAir tempDewpointWater temp
2015-Feb-28 01:32N 43°24' E 004°60'0 0.0
2015-Feb-28 00:32N 43°24' E 004°60'0 0.0
2015-Feb-27 23:33N 43°24' E 004°60'0 0.0
2015-Feb-27 22:33N 43°24' E 004°60'0 0.0
2015-Feb-27 21:33N 43°24' E 004°60'0 0.0
2015-Feb-27 20:33N 43°24' E 004°60'0 0.0
2015-Feb-27 19:33N 43°24' E 004°60'0 0.0
2015-Feb-27 18:33N 43°24' E 004°60'0 0.0
2015-Feb-27 17:33N 43°24' E 004°60'0 0.0
2015-Feb-27 16:33N 43°24' E 004°60'0 0.0
2015-Feb-27 15:33N 43°24' E 004°60'0 0.0
2015-Feb-27 14:33N 43°24' E 004°60'0 0.0
2015-Feb-27 13:33N 43°24' E 004°60'0 0.0
2015-Feb-27 12:30N 43°24' E 004°60'0 0.0
2015-Feb-27 11:33N 43°24' E 004°60'0 0.0
2015-Feb-27 10:33N 43°24' E 004°60'0 0.0
2015-Feb-27 09:33N 43°24' E 004°60'0 0.0
2015-Feb-27 08:33N 43°24' E 004°60'0 0.0
2015-Feb-27 07:33N 43°24' E 004°60'0 0.0
2015-Feb-27 06:33N 43°24' E 004°60'0 0.0
2015-Feb-27 05:33N 43°24' E 004°60'0 0.0
2015-Feb-27 04:33N 43°24' E 004°60'0 0.0
2015-Feb-27 03:33N 43°24' E 004°60'0 0.0
2015-Feb-27 02:33N 43°24' E 004°60'0 0.0
2015-Feb-27 01:33N 43°24' E 004°60'0 0.0
2015-Feb-27 00:33N 43°24' E 004°60'0 0.0
2015-Feb-26 23:33N 43°24' E 004°60'0 0.0
2015-Feb-26 22:33N 43°24' E 004°60'0 0.0
2015-Feb-26 21:33N 43°24' E 004°60'0 0.0
2015-Feb-26 20:33N 43°24' E 004°60'0 0.0
2015-Feb-26 19:33N 43°24' E 004°60'0 0.0
2015-Feb-26 18:33N 43°24' E 004°60'0 0.0
2015-Feb-26 17:30N 43°24' E 004°60'0 0.0
2015-Feb-26 16:33N 43°24' E 004°60'0 0.0
2015-Feb-26 15:33N 43°24' E 004°60'0 0.0
2015-Feb-26 14:33N 43°24' E 004°60'0 0.0
2015-Feb-26 13:33N 43°24' E 004°60'0 0.0
2015-Feb-26 12:33N 43°24' E 004°60'0 0.0
2015-Feb-26 11:33N 43°24' E 004°60'0 0.0
2015-Feb-26 10:33N 43°24' E 004°60'0 0.0
2015-Feb-26 09:33N 43°24' E 004°60'0 0.0
2015-Feb-26 08:33N 43°24' E 004°60'0 0.0
2015-Feb-26 07:33N 43°24' E 004°60'0 0.0
2015-Feb-26 06:33N 43°24' E 004°60'0 0.0
2015-Feb-26 05:33N 43°24' E 004°60'0 0.0
2015-Feb-26 04:33N 43°24' E 004°60'0 0.0
2015-Feb-26 03:33N 43°24' E 004°60'0 0.0
2015-Feb-26 02:33N 43°24' E 004°60'0 0.0
2015-Feb-26 01:33N 43°24' E 004°60'0 0.0
2015-Feb-26 00:33N 43°24' E 004°60'0 0.0
2015-Feb-25 23:33N 43°24' E 004°60'0 0.0
2015-Feb-25 22:33N 43°24' E 004°60'0 0.0
2015-Feb-25 21:33N 43°24' E 004°60'0 0.0
2015-Feb-25 20:33N 43°24' E 004°60'0 0.0
2015-Feb-25 19:33N 43°24' E 004°60'0 0.0
2015-Feb-25 18:33N 43°24' E 004°60'0 0.0
2015-Feb-25 17:33N 43°24' E 004°60'0 0.0
2015-Feb-25 16:33N 43°24' E 004°60'0 0.0
2015-Feb-25 15:33N 43°24' E 004°60'3 2.9
2015-Feb-25 14:34N 43°24' E 004°56'4 4.3
2015-Feb-25 13:33N 43°25' E 004°50'0 0.0
2015-Feb-25 12:34N 43°25' E 004°50'0 0.0
2015-Feb-25 11:33N 43°25' E 004°50'0 0.0
2015-Feb-25 10:33N 43°25' E 004°50'0 0.0
2015-Feb-25 09:33N 43°25' E 004°50'6 6.4
2015-Feb-25 08:33N 43°23' E 004°59'1 0.7
2015-Feb-25 07:31N 43°24' E 004°60'0 0.0
2015-Feb-25 06:31N 43°24' E 004°60'1 0.5
2015-Feb-25 05:32N 43°24' E 004°60'0 0.0
2015-Feb-25 04:32N 43°24' E 004°60'0 0.0
2015-Feb-25 03:32N 43°24' E 004°60'0 0.0
2015-Feb-25 02:32N 43°24' E 004°60'0 0.0
2015-Feb-25 01:33N 43°24' E 004°60'0 0.0
2015-Feb-25 00:33N 43°24' E 004°60'0 0.0
2015-Feb-24 23:33N 43°24' E 004°60'0 0.0
2015-Feb-24 22:33N 43°24' E 004°60'0 0.0
2015-Feb-24 21:33N 43°24' E 004°60'0 0.0
2015-Feb-24 20:33N 43°24' E 004°60'0 0.0
2015-Feb-24 19:33N 43°24' E 004°60'0 0.0
2015-Feb-24 18:33N 43°24' E 004°60'0 0.0
2015-Feb-24 17:33N 43°24' E 004°60'0 0.0
2015-Feb-24 16:33N 43°24' E 004°60'0 0.0
2015-Feb-24 15:33N 43°24' E 004°60'0 0.0
2015-Feb-24 14:33N 43°24' E 004°60'0 0.0
2015-Feb-24 13:33N 43°24' E 004°60'0 0.0
2015-Feb-24 12:33N 43°24' E 004°60'0 0.0
2015-Feb-24 11:33N 43°24' E 004°60'0 0.0
2015-Feb-24 10:33N 43°24' E 004°60'0 0.0
2015-Feb-24 09:33N 43°24' E 004°60'0 0.0
2015-Feb-24 08:33N 43°24' E 004°60'0 0.0
2015-Feb-24 07:33N 43°24' E 004°60'0 0.0
2015-Feb-24 06:33N 43°24' E 004°60'0 0.0
2015-Feb-24 05:33N 43°24' E 004°60'0 0.0
2015-Feb-24 04:33N 43°24' E 004°60'0 0.0
2015-Feb-24 03:33N 43°24' E 004°60'0 0.0
2015-Feb-24 02:33N 43°24' E 004°60'0 0.0
2015-Feb-24 01:33N 43°24' E 004°60'0 0.0
2015-Feb-24 00:33N 43°24' E 004°60'0 0.2
2015-Feb-23 23:34N 43°24' E 004°60'4 4.4
2015-Feb-23 22:33N 43°26' E 004°54'0 0.0
2015-Feb-23 21:30N 43°26' E 004°54'0 0.0
2015-Feb-23 20:34N 43°26' E 004°54'0 0.0
2015-Feb-23 19:31N 43°26' E 004°54'0 0.0
2015-Feb-23 18:30N 43°26' E 004°54'0 0.0
2015-Feb-23 17:30N 43°26' E 004°54'0 0.0
2015-Feb-23 16:33N 43°26' E 004°54'4 4.3
2015-Feb-23 15:34N 43°24' E 004°59'0 0.4
2015-Feb-23 14:32N 43°24' E 004°60'0 0.0
2015-Feb-23 13:32N 43°24' E 004°60'0 0.0
2015-Feb-23 12:32N 43°24' E 004°60'0 0.0
2015-Feb-23 11:32N 43°24' E 004°60'0 0.0
2015-Feb-23 10:32N 43°24' E 004°60'0 0.0
2015-Feb-23 09:32N 43°24' E 004°60'0 0.0
2015-Feb-23 08:32N 43°24' E 004°60'0 0.0
2015-Feb-23 07:32N 43°24' E 004°60'0 0.0
2015-Feb-23 06:32N 43°24' E 004°60'0 0.0
2015-Feb-23 05:32N 43°24' E 004°60'0 0.0
2015-Feb-23 04:32N 43°24' E 004°60'0 0.0
2015-Feb-23 03:32N 43°24' E 004°60'0 0.0
2015-Feb-23 02:32N 43°24' E 004°60'0 0.0
2015-Feb-23 01:32N 43°24' E 004°60'0 0.0
2015-Feb-23 00:32N 43°24' E 004°60'0 0.0
2015-Feb-22 23:32N 43°24' E 004°60'0 0.0
2015-Feb-22 22:31N 43°24' E 004°60'0 0.0
2015-Feb-22 21:31N 43°24' E 004°60'0 0.0
2015-Feb-22 20:31N 43°24' E 004°60'0 0.0
2015-Feb-22 19:31N 43°24' E 004°60'0 0.0
2015-Feb-22 18:31N 43°24' E 004°60'0 0.0
2015-Feb-22 17:31N 43°24' E 004°60'0 0.0
2015-Feb-22 16:31N 43°24' E 004°60'0 0.0
2015-Feb-22 15:31N 43°24' E 004°60'0 0.0
2015-Feb-22 14:31N 43°24' E 004°60'0 0.0
2015-Feb-22 13:33N 43°24' E 004°60'0 0.0
2015-Feb-22 12:33N 43°24' E 004°60'0 0.0
2015-Feb-22 11:33N 43°24' E 004°60'0 0.0
2015-Feb-22 10:33N 43°24' E 004°60'0 0.0
2015-Feb-22 09:33N 43°24' E 004°60'0 0.0
2015-Feb-22 08:33N 43°24' E 004°60'0 0.0
2015-Feb-22 07:33N 43°24' E 004°60'0 0.0
2015-Feb-22 06:33N 43°24' E 004°60'0 0.0
2015-Feb-22 05:33N 43°24' E 004°60'0 0.0
2015-Feb-22 04:33N 43°24' E 004°60'0 0.0
2015-Feb-22 03:33N 43°24' E 004°60'0 0.0
2015-Feb-22 02:33N 43°24' E 004°60'0 0.0
2015-Feb-22 01:33N 43°24' E 004°60'0 0.0
2015-Feb-22 00:33N 43°24' E 004°60'0 0.0
2015-Feb-21 23:33N 43°24' E 004°60'0 0.0
2015-Feb-21 22:33N 43°24' E 004°60'0 0.0
2015-Feb-21 21:33N 43°24' E 004°60'0 0.0
2015-Feb-21 20:33N 43°24' E 004°60'0 0.0
2015-Feb-21 19:33N 43°24' E 004°60'0 0.0
2015-Feb-21 18:33N 43°24' E 004°60'0 0.0
2015-Feb-21 17:32N 43°24' E 004°60'0 0.0
2015-Feb-21 16:32N 43°24' E 004°60'0 0.0
2015-Feb-21 15:32N 43°24' E 004°60'0 0.0
2015-Feb-21 14:32N 43°24' E 004°60'0 0.0
2015-Feb-21 13:32N 43°24' E 004°60'0 0.0
2015-Feb-21 12:32N 43°24' E 004°60'0 0.0
2015-Feb-21 11:32N 43°24' E 004°60'0 0.0
2015-Feb-21 10:32N 43°24' E 004°60'0 0.0
2015-Feb-21 09:32N 43°24' E 004°60'0 0.0
2015-Feb-21 08:32N 43°24' E 004°60'0 0.0
2015-Feb-21 07:32N 43°24' E 004°60'0 0.0
2015-Feb-21 06:32N 43°24' E 004°60'0 0.0
2015-Feb-21 05:32N 43°24' E 004°60'0 0.0
2015-Feb-21 04:32N 43°24' E 004°60'0 0.0
2015-Feb-21 03:32N 43°24' E 004°60'0 0.0
2015-Feb-21 02:32N 43°24' E 004°60'0 0.0
2015-Feb-21 01:32N 43°24' E 004°60'0 0.0
2015-Feb-21 00:32N 43°24' E 004°60'0 0.0
2015-Feb-20 23:32N 43°24' E 004°60'0 0.0
2015-Feb-20 22:32N 43°24' E 004°60'0 0.0
2015-Feb-20 21:32N 43°24' E 004°60'0 0.0
2015-Feb-20 20:32N 43°24' E 004°60'0 0.0
2015-Feb-20 19:32N 43°24' E 004°60'0 0.0
2015-Feb-20 18:29N 43°24' E 004°60'0 0.0
2015-Feb-20 17:32N 43°24' E 004°60'0 0.0
2015-Feb-20 16:32N 43°24' E 004°60'3 2.8
2015-Feb-20 15:33N 43°25' E 004°56'0 0.0
2015-Feb-20 14:33N 43°25' E 004°56'0 0.0
2015-Feb-20 13:33N 43°25' E 004°56'0 0.0
2015-Feb-20 12:33N 43°25' E 004°56'0 0.1
2015-Feb-20 11:33N 43°25' E 004°56'3 2.6
2015-Feb-20 10:31N 43°24' E 004°60'0 0.0
2015-Feb-20 09:31N 43°24' E 004°60'0 0.0
2015-Feb-20 08:31N 43°24' E 004°60'0 0.0
2015-Feb-20 07:31N 43°24' E 004°60'0 0.0
2015-Feb-20 06:31N 43°24' E 004°60'0 0.0
2015-Feb-20 05:31N 43°24' E 004°60'0 0.0
2015-Feb-20 04:31N 43°24' E 004°60'0 0.0
2015-Feb-20 03:31N 43°24' E 004°60'0 0.0
2015-Feb-20 02:28N 43°24' E 004°60'0 0.0
2015-Feb-20 01:31N 43°24' E 004°60'0 0.0
2015-Feb-20 00:31N 43°24' E 004°60'0 0.0
2015-Feb-19 23:31N 43°24' E 004°60'0 0.0
2015-Feb-19 22:31N 43°24' E 004°60'0 0.0
2015-Feb-19 21:31N 43°24' E 004°60'0 0.0
2015-Feb-19 20:31N 43°24' E 004°60'0 0.0
2015-Feb-19 19:31N 43°24' E 004°60'0 0.0
2015-Feb-19 18:31N 43°24' E 004°60'3 3.5
2015-Feb-19 17:34N 43°21' E 005°00'0 0.1
2015-Feb-19 16:28N 43°21' E 004°60'0 0.0
2015-Feb-19 15:28N 43°21' E 004°60'0 0.0
2015-Feb-19 14:31N 43°21' E 004°60'0 0.1
2015-Feb-19 13:28N 43°21' E 004°60'0 0.1
2015-Feb-19 12:31N 43°21' E 004°60'0 0.0
2015-Feb-19 11:31N 43°21' E 004°60'0 0.0
2015-Feb-19 10:31N 43°21' E 004°60'1 1.4
2015-Feb-19 09:34N 43°22' E 004°59'2 1.9
2015-Feb-19 08:31N 43°24' E 004°60'0 0.0
2015-Feb-19 07:31N 43°24' E 004°60'0 0.0
2015-Feb-19 06:31N 43°24' E 004°60'0 0.0
2015-Feb-19 05:31N 43°24' E 004°60'0 0.0
2015-Feb-19 04:31N 43°24' E 004°60'0 0.0
2015-Feb-19 03:31N 43°24' E 004°60'0 0.0
2015-Feb-19 02:31N 43°24' E 004°60'0 0.0
2015-Feb-19 01:31N 43°24' E 004°60'0 0.0
2015-Feb-19 00:31N 43°24' E 004°60'0 0.0
2015-Feb-18 23:31N 43°24' E 004°60'0 0.0
2015-Feb-18 22:31N 43°24' E 004°60'0 0.0
2015-Feb-18 21:31N 43°24' E 004°60'0 0.0
2015-Feb-18 20:31N 43°24' E 004°60'0 0.0
2015-Feb-18 19:31N 43°24' E 004°60'0 0.0
2015-Feb-18 18:31N 43°24' E 004°60'0 0.0
2015-Feb-18 17:31N 43°24' E 004°60'0 0.0
2015-Feb-18 16:31N 43°24' E 004°60'0 0.0
2015-Feb-18 15:31N 43°24' E 004°60'0 0.0
2015-Feb-18 14:31N 43°24' E 004°60'0 0.0
2015-Feb-18 13:31N 43°24' E 004°60'0 0.0
2015-Feb-18 12:31N 43°24' E 004°60'0 0.0
2015-Feb-18 11:31N 43°24' E 004°60'0 0.0
2015-Feb-18 10:31N 43°24' E 004°60'0 0.0
2015-Feb-18 09:31N 43°24' E 004°60'0 0.0
2015-Feb-18 08:31N 43°24' E 004°60'0 0.0
2015-Feb-18 07:31N 43°24' E 004°60'0 0.0
2015-Feb-18 06:31N 43°24' E 004°60'0 0.0
2015-Feb-18 05:31N 43°24' E 004°60'0 0.0
2015-Feb-18 04:31N 43°24' E 004°60'0 0.0
2015-Feb-18 03:31N 43°24' E 004°60'0 0.0
2015-Feb-18 02:31N 43°24' E 004°60'  

Dump ship's entire track history